Terminal Aerodrome Forecast
Issued by NWS Wakefield, VA

Home | Current Version | Previous Version | Text Only | Print | Product List | Glossary On
Versions: 1 2 3 4 5 6 7 8 9 10 11 12 13 14
000
FTUS41 KAKQ 302100 AAA
TAFRIC
TAF AMD
KRIC 302135Z 3022/3118 33018G25KT P6SM BKN080
     FM302300 32014KT P6SM SKC
     FM310500 33009KT P6SM SKC
     FM311500 31010G15KT P6SM FEW200=

USA.gov is the U.S. government's official web portal to all federal, state and local government web resources and services.